sensor_id;sensor_type;location;lat;lon;timestamp;temperature;humidity
32446;DHT22;18899;50.748;7.102;2023-06-26T00:01:15;21.90;99.90
32446;DHT22;18899;50.748;7.102;2023-06-26T00:03:40;21.90;99.90
32446;DHT22;18899;50.748;7.102;2023-06-26T00:06:06;21.90;99.90
32446;DHT22;18899;50.748;7.102;2023-06-26T00:08:31;21.90;99.90
32446;DHT22;18899;50.748;7.102;2023-06-26T00:10:57;22.00;99.90
32446;DHT22;18899;50.748;7.102;2023-06-26T00:13:23;22.00;99.90
32446;DHT22;18899;50.748;7.102;2023-06-26T00:15:50;22.00;99.90
32446;DHT22;18899;50.748;7.102;2023-06-26T00:18:16;22.00;99.90
32446;DHT22;18899;50.748;7.102;2023-06-26T00:20:41;21.90;99.90
32446;DHT22;18899;50.748;7.102;2023-06-26T00:23:07;21.90;99.90
32446;DHT22;18899;50.748;7.102;2023-06-26T00:25:33;21.90;99.90
32446;DHT22;18899;50.748;7.102;2023-06-26T00:27:59;21.90;99.90
32446;DHT22;18899;50.748;7.102;2023-06-26T00:30:24;21.80;99.90
32446;DHT22;18899;50.748;7.102;2023-06-26T00:32:50;21.70;99.90
32446;DHT22;18899;50.748;7.102;2023-06-26T00:35:16;21.70;99.90
32446;DHT22;18899;50.748;7.102;2023-06-26T00:37:42;21.60;99.90
32446;DHT22;18899;50.748;7.102;2023-06-26T00:40:08;21.60;99.90
32446;DHT22;18899;50.748;7.102;2023-06-26T00:42:34;21.60;99.90
32446;DHT22;18899;50.748;7.102;2023-06-26T00:45:00;21.60;99.90
32446;DHT22;18899;50.748;7.102;2023-06-26T00:47:25;21.60;99.90
32446;DHT22;18899;50.748;7.102;2023-06-26T00:49:52;21.50;99.90
32446;DHT22;18899;50.748;7.102;2023-06-26T00:52:17;21.60;99.90
32446;DHT22;18899;50.748;7.102;2023-06-26T00:54:43;21.60;99.90
32446;DHT22;18899;50.748;7.102;2023-06-26T00:57:09;21.60;99.90
32446;DHT22;18899;50.748;7.102;2023-06-26T00:59:35;21.60;99.90
32446;DHT22;18899;50.748;7.102;2023-06-26T01:02:01;21.60;99.90
32446;DHT22;18899;50.748;7.102;2023-06-26T01:04:26;21.50;99.90
32446;DHT22;18899;50.748;7.102;2023-06-26T01:06:54;21.60;99.90
32446;DHT22;18899;50.748;7.102;2023-06-26T01:09:21;21.50;99.90
32446;DHT22;18899;50.748;7.102;2023-06-26T01:11:47;21.50;99.90
32446;DHT22;18899;50.748;7.102;2023-06-26T01:14:13;21.40;99.90
32446;DHT22;18899;50.748;7.102;2023-06-26T01:16:40;21.40;99.90
32446;DHT22;18899;50.748;7.102;2023-06-26T01:19:12;21.40;99.90
32446;DHT22;18899;50.748;7.102;2023-06-26T01:21:42;21.30;99.90
32446;DHT22;18899;50.748;7.102;2023-06-26T01:24:15;21.20;99.90
32446;DHT22;18899;50.748;7.102;2023-06-26T01:26:47;21.20;99.90
32446;DHT22;18899;50.748;7.102;2023-06-26T01:29:15;21.20;99.90
32446;DHT22;18899;50.748;7.102;2023-06-26T01:31:42;21.20;99.90
32446;DHT22;18899;50.748;7.102;2023-06-26T01:34:09;21.20;99.90
32446;DHT22;18899;50.748;7.102;2023-06-26T01:36:34;21.20;99.90
32446;DHT22;18899;50.748;7.102;2023-06-26T01:39:00;21.10;99.90
32446;DHT22;18899;50.748;7.102;2023-06-26T01:41:26;21.10;99.90
32446;DHT22;18899;50.748;7.102;2023-06-26T01:46:43;21.00;99.90
32446;DHT22;18899;50.748;7.102;2023-06-26T01:51:46;21.00;99.90
32446;DHT22;18899;50.748;7.102;2023-06-26T01:54:13;21.00;99.90
32446;DHT22;18899;50.748;7.102;2023-06-26T01:56:43;21.00;99.90
32446;DHT22;18899;50.748;7.102;2023-06-26T01:59:11;21.00;99.90
32446;DHT22;18899;50.748;7.102;2023-06-26T02:01:39;21.00;99.90
32446;DHT22;18899;50.748;7.102;2023-06-26T02:04:04;21.00;99.90
32446;DHT22;18899;50.748;7.102;2023-06-26T02:06:30;20.90;99.90
32446;DHT22;18899;50.748;7.102;2023-06-26T02:08:56;20.80;99.90
32446;DHT22;18899;50.748;7.102;2023-06-26T02:11:22;20.80;99.90
32446;DHT22;18899;50.748;7.102;2023-06-26T02:13:48;20.70;99.90
32446;DHT22;18899;50.748;7.102;2023-06-26T02:16:13;20.80;99.90
32446;DHT22;18899;50.748;7.102;2023-06-26T02:18:38;20.70;99.90
32446;DHT22;18899;50.748;7.102;2023-06-26T02:21:05;20.70;99.90
32446;DHT22;18899;50.748;7.102;2023-06-26T02:23:31;20.70;99.90
32446;DHT22;18899;50.748;7.102;2023-06-26T02:25:56;20.70;99.90
32446;DHT22;18899;50.748;7.102;2023-06-26T02:28:22;20.80;99.90
32446;DHT22;18899;50.748;7.102;2023-06-26T02:30:47;20.80;99.90
32446;DHT22;18899;50.748;7.102;2023-06-26T02:33:13;20.80;99.90
32446;DHT22;18899;50.748;7.102;2023-06-26T02:35:38;20.80;99.90
32446;DHT22;18899;50.748;7.102;2023-06-26T02:38:04;20.80;99.90
32446;DHT22;18899;50.748;7.102;2023-06-26T02:40:30;20.80;99.90
32446;DHT22;18899;50.748;7.102;2023-06-26T02:42:55;20.80;99.90
32446;DHT22;18899;50.748;7.102;2023-06-26T02:45:21;20.70;99.90
32446;DHT22;18899;50.748;7.102;2023-06-26T02:47:46;20.80;99.90
32446;DHT22;18899;50.748;7.102;2023-06-26T02:50:12;20.60;99.90
32446;DHT22;18899;50.748;7.102;2023-06-26T02:52:37;20.60;99.90
32446;DHT22;18899;50.748;7.102;2023-06-26T02:55:04;20.50;99.90
32446;DHT22;18899;50.748;7.102;2023-06-26T02:57:30;20.30;99.90
32446;DHT22;18899;50.748;7.102;2023-06-26T02:59:56;20.30;99.90
32446;DHT22;18899;50.748;7.102;2023-06-26T03:02:21;20.30;99.90
32446;DHT22;18899;50.748;7.102;2023-06-26T03:04:47;20.30;99.90
32446;DHT22;18899;50.748;7.102;2023-06-26T03:07:12;20.30;99.90
32446;DHT22;18899;50.748;7.102;2023-06-26T03:09:38;20.30;99.90
32446;DHT22;18899;50.748;7.102;2023-06-26T03:12:04;20.30;99.90
32446;DHT22;18899;50.748;7.102;2023-06-26T03:14:29;20.20;99.90
32446;DHT22;18899;50.748;7.102;2023-06-26T03:16:57;20.20;99.90
32446;DHT22;18899;50.748;7.102;2023-06-26T03:19:23;20.10;99.90
32446;DHT22;18899;50.748;7.102;2023-06-26T03:21:49;20.10;99.90
32446;DHT22;18899;50.748;7.102;2023-06-26T03:24:14;20.00;99.90
32446;DHT22;18899;50.748;7.102;2023-06-26T03:26:40;20.00;99.90
32446;DHT22;18899;50.748;7.102;2023-06-26T03:29:05;20.00;99.90
32446;DHT22;18899;50.748;7.102;2023-06-26T03:31:31;20.10;99.90
32446;DHT22;18899;50.748;7.102;2023-06-26T03:33:56;20.10;99.90
32446;DHT22;18899;50.748;7.102;2023-06-26T03:36:22;20.10;99.90
32446;DHT22;18899;50.748;7.102;2023-06-26T03:38:47;20.10;99.90
32446;DHT22;18899;50.748;7.102;2023-06-26T03:41:13;20.10;99.90
32446;DHT22;18899;50.748;7.102;2023-06-26T03:43:38;20.20;99.90
32446;DHT22;18899;50.748;7.102;2023-06-26T03:46:04;20.30;99.90
32446;DHT22;18899;50.748;7.102;2023-06-26T03:48:29;20.40;99.90
32446;DHT22;18899;50.748;7.102;2023-06-26T03:50:55;20.50;99.90
32446;DHT22;18899;50.748;7.102;2023-06-26T03:53:21;20.60;99.90
32446;DHT22;18899;50.748;7.102;2023-06-26T03:55:46;20.70;99.90
32446;DHT22;18899;50.748;7.102;2023-06-26T03:58:12;20.80;99.90
32446;DHT22;18899;50.748;7.102;2023-06-26T04:00:37;20.90;99.90
32446;DHT22;18899;50.748;7.102;2023-06-26T04:03:03;21.00;99.90
32446;DHT22;18899;50.748;7.102;2023-06-26T04:05:29;21.00;99.90
32446;DHT22;18899;50.748;7.102;2023-06-26T04:07:55;21.10;99.90
32446;DHT22;18899;50.748;7.102;2023-06-26T04:10:20;21.10;99.90
32446;DHT22;18899;50.748;7.102;2023-06-26T04:12:47;21.20;99.90
32446;DHT22;18899;50.748;7.102;2023-06-26T04:15:13;21.40;99.90
32446;DHT22;18899;50.748;7.102;2023-06-26T04:17:39;21.50;99.90
32446;DHT22;18899;50.748;7.102;2023-06-26T04:20:05;21.60;99.90
32446;DHT22;18899;50.748;7.102;2023-06-26T04:22:34;21.70;99.90
32446;DHT22;18899;50.748;7.102;2023-06-26T04:25:02;21.80;99.90
32446;DHT22;18899;50.748;7.102;2023-06-26T04:27:28;21.90;99.90
32446;DHT22;18899;50.748;7.102;2023-06-26T04:29:53;22.10;99.90
32446;DHT22;18899;50.748;7.102;2023-06-26T04:32:19;22.40;99.90
32446;DHT22;18899;50.748;7.102;2023-06-26T04:34:45;22.60;99.90
32446;DHT22;18899;50.748;7.102;2023-06-26T04:37:10;22.90;99.90
32446;DHT22;18899;50.748;7.102;2023-06-26T04:39:37;23.10;99.90
32446;DHT22;18899;50.748;7.102;2023-06-26T04:42:04;23.20;99.90
32446;DHT22;18899;50.748;7.102;2023-06-26T04:44:29;23.30;99.90
32446;DHT22;18899;50.748;7.102;2023-06-26T04:46:55;23.40;99.90
32446;DHT22;18899;50.748;7.102;2023-06-26T04:49:20;23.50;99.90
32446;DHT22;18899;50.748;7.102;2023-06-26T04:51:46;23.60;99.90
32446;DHT22;18899;50.748;7.102;2023-06-26T04:54:12;23.80;99.90
32446;DHT22;18899;50.748;7.102;2023-06-26T04:56:38;23.80;99.90
32446;DHT22;18899;50.748;7.102;2023-06-26T04:59:05;23.90;99.90
32446;DHT22;18899;50.748;7.102;2023-06-26T05:01:31;24.00;99.90
32446;DHT22;18899;50.748;7.102;2023-06-26T05:04:01;24.00;99.90
32446;DHT22;18899;50.748;7.102;2023-06-26T05:06:27;23.90;99.90
32446;DHT22;18899;50.748;7.102;2023-06-26T05:08:53;23.90;99.90
32446;DHT22;18899;50.748;7.102;2023-06-26T05:11:18;23.90;99.90
32446;DHT22;18899;50.748;7.102;2023-06-26T05:13:44;23.90;99.90
32446;DHT22;18899;50.748;7.102;2023-06-26T05:16:10;23.80;99.90
32446;DHT22;18899;50.748;7.102;2023-06-26T05:18:35;23.80;99.90
32446;DHT22;18899;50.748;7.102;2023-06-26T05:21:02;23.80;99.90
32446;DHT22;18899;50.748;7.102;2023-06-26T05:23:30;23.90;99.90
32446;DHT22;18899;50.748;7.102;2023-06-26T05:25:56;23.80;99.90
32446;DHT22;18899;50.748;7.102;2023-06-26T05:28:23;23.90;99.90
32446;DHT22;18899;50.748;7.102;2023-06-26T05:30:50;23.90;99.90
32446;DHT22;18899;50.748;7.102;2023-06-26T05:33:18;24.10;99.90
32446;DHT22;18899;50.748;7.102;2023-06-26T05:35:45;24.50;99.90
32446;DHT22;18899;50.748;7.102;2023-06-26T05:38:12;25.10;99.90
32446;DHT22;18899;50.748;7.102;2023-06-26T05:40:39;25.60;99.90
32446;DHT22;18899;50.748;7.102;2023-06-26T05:43:06;26.00;99.90
32446;DHT22;18899;50.748;7.102;2023-06-26T05:45:31;26.50;97.60
32446;DHT22;18899;50.748;7.102;2023-06-26T05:47:57;26.50;95.20
32446;DHT22;18899;50.748;7.102;2023-06-26T05:50:23;26.20;96.20
32446;DHT22;18899;50.748;7.102;2023-06-26T05:52:49;25.90;95.50
32446;DHT22;18899;50.748;7.102;2023-06-26T05:55:14;25.40;96.60
32446;DHT22;18899;50.748;7.102;2023-06-26T05:57:40;25.30;97.20
32446;DHT22;18899;50.748;7.102;2023-06-26T06:00:07;25.10;97.50
32446;DHT22;18899;50.748;7.102;2023-06-26T06:02:36;24.80;98.50
32446;DHT22;18899;50.748;7.102;2023-06-26T06:05:02;24.50;99.20
32446;DHT22;18899;50.748;7.102;2023-06-26T06:07:28;24.40;99.90
32446;DHT22;18899;50.748;7.102;2023-06-26T06:09:53;24.40;99.90
32446;DHT22;18899;50.748;7.102;2023-06-26T06:12:19;24.30;99.90
32446;DHT22;18899;50.748;7.102;2023-06-26T06:14:44;24.40;99.90
32446;DHT22;18899;50.748;7.102;2023-06-26T06:17:10;24.20;99.90
32446;DHT22;18899;50.748;7.102;2023-06-26T06:19:36;24.30;99.90
32446;DHT22;18899;50.748;7.102;2023-06-26T06:22:01;24.90;99.90
32446;DHT22;18899;50.748;7.102;2023-06-26T06:24:27;26.10;97.00
32446;DHT22;18899;50.748;7.102;2023-06-26T06:26:53;26.90;94.60
32446;DHT22;18899;50.748;7.102;2023-06-26T06:29:18;27.40;91.90
32446;DHT22;18899;50.748;7.102;2023-06-26T06:31:45;27.70;91.40
32446;DHT22;18899;50.748;7.102;2023-06-26T06:34:10;28.00;90.10
32446;DHT22;18899;50.748;7.102;2023-06-26T06:36:36;28.00;88.40
32446;DHT22;18899;50.748;7.102;2023-06-26T06:39:01;27.80;87.90
32446;DHT22;18899;50.748;7.102;2023-06-26T06:41:27;27.30;90.10
32446;DHT22;18899;50.748;7.102;2023-06-26T06:43:52;26.40;91.90
32446;DHT22;18899;50.748;7.102;2023-06-26T06:46:18;25.50;94.20
32446;DHT22;18899;50.748;7.102;2023-06-26T06:48:44;25.20;96.00
32446;DHT22;18899;50.748;7.102;2023-06-26T06:51:09;25.60;96.40
32446;DHT22;18899;50.748;7.102;2023-06-26T06:53:35;26.20;95.30
32446;DHT22;18899;50.748;7.102;2023-06-26T06:56:00;26.50;94.30
32446;DHT22;18899;50.748;7.102;2023-06-26T06:58:26;26.60;93.80
32446;DHT22;18899;50.748;7.102;2023-06-26T07:00:51;26.20;93.80
32446;DHT22;18899;50.748;7.102;2023-06-26T07:03:17;25.60;95.10
32446;DHT22;18899;50.748;7.102;2023-06-26T07:05:43;25.20;96.70
32446;DHT22;18899;50.748;7.102;2023-06-26T07:08:08;24.80;98.70
32446;DHT22;18899;50.748;7.102;2023-06-26T07:10:34;25.40;99.40
32446;DHT22;18899;50.748;7.102;2023-06-26T07:13:00;25.70;97.40
32446;DHT22;18899;50.748;7.102;2023-06-26T07:15:25;25.70;97.70
32446;DHT22;18899;50.748;7.102;2023-06-26T07:17:52;26.00;96.60
32446;DHT22;18899;50.748;7.102;2023-06-26T07:20:17;25.80;96.90
32446;DHT22;18899;50.748;7.102;2023-06-26T07:22:43;26.10;96.90
32446;DHT22;18899;50.748;7.102;2023-06-26T07:25:10;26.70;94.90
32446;DHT22;18899;50.748;7.102;2023-06-26T07:27:37;26.90;93.80
32446;DHT22;18899;50.748;7.102;2023-06-26T07:30:02;26.90;93.50
32446;DHT22;18899;50.748;7.102;2023-06-26T07:32:29;26.90;93.90
32446;DHT22;18899;50.748;7.102;2023-06-26T07:34:54;27.20;93.30
32446;DHT22;18899;50.748;7.102;2023-06-26T07:37:20;26.90;93.20
32446;DHT22;18899;50.748;7.102;2023-06-26T07:39:45;26.40;94.70
32446;DHT22;18899;50.748;7.102;2023-06-26T07:42:11;25.90;96.00
32446;DHT22;18899;50.748;7.102;2023-06-26T07:44:36;25.50;97.00
32446;DHT22;18899;50.748;7.102;2023-06-26T07:47:02;25.20;98.10
32446;DHT22;18899;50.748;7.102;2023-06-26T07:49:28;25.20;98.70
32446;DHT22;18899;50.748;7.102;2023-06-26T07:51:53;25.20;99.90
32446;DHT22;18899;50.748;7.102;2023-06-26T07:54:19;26.30;98.40
32446;DHT22;18899;50.748;7.102;2023-06-26T07:59:24;28.30;91.10
32446;DHT22;18899;50.748;7.102;2023-06-26T08:01:54;29.20;90.00
32446;DHT22;18899;50.748;7.102;2023-06-26T08:04:20;29.70;83.80
32446;DHT22;18899;50.748;7.102;2023-06-26T08:06:50;29.30;83.60
32446;DHT22;18899;50.748;7.102;2023-06-26T08:09:17;28.50;86.70
32446;DHT22;18899;50.748;7.102;2023-06-26T08:11:44;28.50;87.20
32446;DHT22;18899;50.748;7.102;2023-06-26T08:14:10;28.60;87.30
32446;DHT22;18899;50.748;7.102;2023-06-26T08:16:40;28.80;85.40
32446;DHT22;18899;50.748;7.102;2023-06-26T08:19:07;27.90;87.60
32446;DHT22;18899;50.748;7.102;2023-06-26T08:21:33;26.80;91.10
32446;DHT22;18899;50.748;7.102;2023-06-26T08:23:58;26.30;92.20
32446;DHT22;18899;50.748;7.102;2023-06-26T08:26:24;26.40;92.70
32446;DHT22;18899;50.748;7.102;2023-06-26T08:28:49;26.30;93.10
32446;DHT22;18899;50.748;7.102;2023-06-26T08:31:16;27.00;92.20
32446;DHT22;18899;50.748;7.102;2023-06-26T08:33:41;28.10;90.60
32446;DHT22;18899;50.748;7.102;2023-06-26T08:36:07;29.10;85.50
32446;DHT22;18899;50.748;7.102;2023-06-26T08:38:32;29.50;81.70
32446;DHT22;18899;50.748;7.102;2023-06-26T08:40:58;30.60;78.10
32446;DHT22;18899;50.748;7.102;2023-06-26T08:43:24;31.70;72.20
32446;DHT22;18899;50.748;7.102;2023-06-26T08:45:52;32.30;69.50
32446;DHT22;18899;50.748;7.102;2023-06-26T08:48:18;31.80;69.90
32446;DHT22;18899;50.748;7.102;2023-06-26T08:50:44;31.80;69.40
32446;DHT22;18899;50.748;7.102;2023-06-26T08:53:14;30.90;70.50
32446;DHT22;18899;50.748;7.102;2023-06-26T08:55:43;30.50;73.10
32446;DHT22;18899;50.748;7.102;2023-06-26T08:58:10;31.60;69.20
32446;DHT22;18899;50.748;7.102;2023-06-26T09:00:35;32.70;66.40
32446;DHT22;18899;50.748;7.102;2023-06-26T09:03:03;31.80;64.60
32446;DHT22;18899;50.748;7.102;2023-06-26T09:05:29;30.70;67.60
32446;DHT22;18899;50.748;7.102;2023-06-26T09:07:57;30.00;69.50
32446;DHT22;18899;50.748;7.102;2023-06-26T09:10:24;29.70;71.60
32446;DHT22;18899;50.748;7.102;2023-06-26T09:12:49;29.80;73.60
32446;DHT22;18899;50.748;7.102;2023-06-26T09:15:15;30.30;70.70
32446;DHT22;18899;50.748;7.102;2023-06-26T09:17:44;30.10;69.80
32446;DHT22;18899;50.748;7.102;2023-06-26T09:20:10;29.30;73.20
32446;DHT22;18899;50.748;7.102;2023-06-26T09:22:37;29.10;72.10
32446;DHT22;18899;50.748;7.102;2023-06-26T09:25:05;29.20;73.60
32446;DHT22;18899;50.748;7.102;2023-06-26T09:27:31;29.10;73.60
32446;DHT22;18899;50.748;7.102;2023-06-26T09:29:57;28.10;76.50
32446;DHT22;18899;50.748;7.102;2023-06-26T09:32:24;27.50;78.10
32446;DHT22;18899;50.748;7.102;2023-06-26T09:34:52;27.30;80.80
32446;DHT22;18899;50.748;7.102;2023-06-26T09:37:18;27.40;80.60
32446;DHT22;18899;50.748;7.102;2023-06-26T09:39:44;28.00;78.70
32446;DHT22;18899;50.748;7.102;2023-06-26T09:42:10;29.00;75.50
32446;DHT22;18899;50.748;7.102;2023-06-26T09:44:35;29.00;72.30
32446;DHT22;18899;50.748;7.102;2023-06-26T09:47:02;28.30;73.80
32446;DHT22;18899;50.748;7.102;2023-06-26T09:49:29;27.70;76.20
32446;DHT22;18899;50.748;7.102;2023-06-26T09:51:55;27.30;76.90
32446;DHT22;18899;50.748;7.102;2023-06-26T09:54:22;28.10;74.80
32446;DHT22;18899;50.748;7.102;2023-06-26T09:56:49;28.60;71.30
32446;DHT22;18899;50.748;7.102;2023-06-26T09:59:15;29.40;69.80
32446;DHT22;18899;50.748;7.102;2023-06-26T10:01:43;30.30;64.90
32446;DHT22;18899;50.748;7.102;2023-06-26T10:04:10;30.30;64.90
32446;DHT22;18899;50.748;7.102;2023-06-26T10:06:38;30.40;64.20
32446;DHT22;18899;50.748;7.102;2023-06-26T10:09:04;30.20;63.80
32446;DHT22;18899;50.748;7.102;2023-06-26T10:11:41;29.40;66.10
32446;DHT22;18899;50.748;7.102;2023-06-26T10:14:11;29.00;65.80
32446;DHT22;18899;50.748;7.102;2023-06-26T10:16:39;28.70;67.40
32446;DHT22;18899;50.748;7.102;2023-06-26T10:19:06;29.00;69.80
32446;DHT22;18899;50.748;7.102;2023-06-26T10:21:34;29.60;66.10
32446;DHT22;18899;50.748;7.102;2023-06-26T10:24:02;29.80;66.10
32446;DHT22;18899;50.748;7.102;2023-06-26T10:26:30;29.20;65.70
32446;DHT22;18899;50.748;7.102;2023-06-26T10:28:57;28.50;67.80
32446;DHT22;18899;50.748;7.102;2023-06-26T10:31:26;28.50;67.50
32446;DHT22;18899;50.748;7.102;2023-06-26T10:33:54;28.50;65.20
32446;DHT22;18899;50.748;7.102;2023-06-26T10:36:27;28.50;67.00
32446;DHT22;18899;50.748;7.102;2023-06-26T10:38:56;29.50;63.90
32446;DHT22;18899;50.748;7.102;2023-06-26T10:41:22;30.20;59.10
32446;DHT22;18899;50.748;7.102;2023-06-26T10:44:06;29.50;60.80
32446;DHT22;18899;50.748;7.102;2023-06-26T10:46:56;29.70;60.80
32446;DHT22;18899;50.748;7.102;2023-06-26T10:49:29;28.90;59.50
32446;DHT22;18899;50.748;7.102;2023-06-26T10:51:55;28.10;61.60
32446;DHT22;18899;50.748;7.102;2023-06-26T10:54:23;28.20;64.20
32446;DHT22;18899;50.748;7.102;2023-06-26T10:56:49;28.70;63.90
32446;DHT22;18899;50.748;7.102;2023-06-26T10:59:26;28.20;61.80
32446;DHT22;18899;50.748;7.102;2023-06-26T11:01:57;27.60;66.20
32446;DHT22;18899;50.748;7.102;2023-06-26T11:04:49;26.60;66.90
32446;DHT22;18899;50.748;7.102;2023-06-26T11:07:21;26.10;71.30
32446;DHT22;18899;50.748;7.102;2023-06-26T11:10:14;26.30;71.50
32446;DHT22;18899;50.748;7.102;2023-06-26T11:12:43;26.50;69.20
32446;DHT22;18899;50.748;7.102;2023-06-26T11:15:13;26.40;71.20
32446;DHT22;18899;50.748;7.102;2023-06-26T11:17:39;26.60;69.70
32446;DHT22;18899;50.748;7.102;2023-06-26T11:20:06;26.80;68.60
32446;DHT22;18899;50.748;7.102;2023-06-26T11:22:35;26.60;67.10
32446;DHT22;18899;50.748;7.102;2023-06-26T11:25:01;26.20;67.40
32446;DHT22;18899;50.748;7.102;2023-06-26T11:27:32;25.80;65.70
32446;DHT22;18899;50.748;7.102;2023-06-26T11:29:58;25.80;67.30
32446;DHT22;18899;50.748;7.102;2023-06-26T11:32:26;25.50;69.60
32446;DHT22;18899;50.748;7.102;2023-06-26T11:34:53;25.60;72.00
32446;DHT22;18899;50.748;7.102;2023-06-26T11:37:20;25.80;71.90
32446;DHT22;18899;50.748;7.102;2023-06-26T11:39:46;25.70;70.40
32446;DHT22;18899;50.748;7.102;2023-06-26T11:42:12;25.80;68.60
32446;DHT22;18899;50.748;7.102;2023-06-26T11:44:41;25.90;69.60
32446;DHT22;18899;50.748;7.102;2023-06-26T11:47:12;26.00;67.70
32446;DHT22;18899;50.748;7.102;2023-06-26T11:49:37;25.90;66.80
32446;DHT22;18899;50.748;7.102;2023-06-26T11:52:03;25.90;66.90
32446;DHT22;18899;50.748;7.102;2023-06-26T11:54:29;25.70;69.10
32446;DHT22;18899;50.748;7.102;2023-06-26T11:56:56;25.60;64.90
32446;DHT22;18899;50.748;7.102;2023-06-26T11:59:22;25.70;66.10
32446;DHT22;18899;50.748;7.102;2023-06-26T12:01:50;25.50;64.70
32446;DHT22;18899;50.748;7.102;2023-06-26T12:04:17;25.60;67.20
32446;DHT22;18899;50.748;7.102;2023-06-26T12:06:50;25.70;66.80
32446;DHT22;18899;50.748;7.102;2023-06-26T12:09:18;25.70;67.10
32446;DHT22;18899;50.748;7.102;2023-06-26T12:11:46;25.80;65.70
32446;DHT22;18899;50.748;7.102;2023-06-26T12:14:14;25.70;64.90
32446;DHT22;18899;50.748;7.102;2023-06-26T12:16:40;25.50;65.90
32446;DHT22;18899;50.748;7.102;2023-06-26T12:19:07;25.20;65.10
32446;DHT22;18899;50.748;7.102;2023-06-26T12:24:15;25.40;64.50
32446;DHT22;18899;50.748;7.102;2023-06-26T12:26:43;25.70;61.60
32446;DHT22;18899;50.748;7.102;2023-06-26T12:29:11;26.00;63.10
32446;DHT22;18899;50.748;7.102;2023-06-26T12:31:43;26.10;63.40
32446;DHT22;18899;50.748;7.102;2023-06-26T12:34:13;26.30;64.40
32446;DHT22;18899;50.748;7.102;2023-06-26T12:36:43;26.40;59.50
32446;DHT22;18899;50.748;7.102;2023-06-26T12:39:10;26.20;62.10
32446;DHT22;18899;50.748;7.102;2023-06-26T12:42:02;26.10;60.90
32446;DHT22;18899;50.748;7.102;2023-06-26T12:44:29;26.20;59.90
32446;DHT22;18899;50.748;7.102;2023-06-26T12:46:57;26.20;60.30
32446;DHT22;18899;50.748;7.102;2023-06-26T12:49:50;26.10;62.40
32446;DHT22;18899;50.748;7.102;2023-06-26T12:52:16;26.10;62.50
32446;DHT22;18899;50.748;7.102;2023-06-26T12:54:43;26.00;61.70
32446;DHT22;18899;50.748;7.102;2023-06-26T12:57:09;25.80;59.30
32446;DHT22;18899;50.748;7.102;2023-06-26T12:59:37;25.60;61.70
32446;DHT22;18899;50.748;7.102;2023-06-26T13:02:02;25.60;63.10
32446;DHT22;18899;50.748;7.102;2023-06-26T13:04:28;25.90;62.50
32446;DHT22;18899;50.748;7.102;2023-06-26T13:06:54;25.90;63.10
32446;DHT22;18899;50.748;7.102;2023-06-26T13:09:21;25.80;61.50
32446;DHT22;18899;50.748;7.102;2023-06-26T13:11:46;25.70;63.00
32446;DHT22;18899;50.748;7.102;2023-06-26T13:14:12;25.30;64.60
32446;DHT22;18899;50.748;7.102;2023-06-26T13:16:38;25.20;62.80
32446;DHT22;18899;50.748;7.102;2023-06-26T13:19:03;25.30;63.20
32446;DHT22;18899;50.748;7.102;2023-06-26T13:21:29;25.40;63.90
32446;DHT22;18899;50.748;7.102;2023-06-26T13:23:56;25.60;63.70
32446;DHT22;18899;50.748;7.102;2023-06-26T13:26:22;25.70;65.70
32446;DHT22;18899;50.748;7.102;2023-06-26T13:28:48;25.50;65.50
32446;DHT22;18899;50.748;7.102;2023-06-26T13:31:14;25.40;66.00
32446;DHT22;18899;50.748;7.102;2023-06-26T13:33:39;25.10;65.90
32446;DHT22;18899;50.748;7.102;2023-06-26T13:36:05;25.10;67.50
32446;DHT22;18899;50.748;7.102;2023-06-26T13:38:33;25.40;64.50
32446;DHT22;18899;50.748;7.102;2023-06-26T13:40:59;25.50;63.80
32446;DHT22;18899;50.748;7.102;2023-06-26T13:43:26;25.40;64.40
32446;DHT22;18899;50.748;7.102;2023-06-26T13:45:52;25.50;63.20
32446;DHT22;18899;50.748;7.102;2023-06-26T13:48:18;25.60;64.00
32446;DHT22;18899;50.748;7.102;2023-06-26T13:50:44;25.70;63.30
32446;DHT22;18899;50.748;7.102;2023-06-26T13:53:10;25.90;63.90
32446;DHT22;18899;50.748;7.102;2023-06-26T13:55:35;26.00;63.20
32446;DHT22;18899;50.748;7.102;2023-06-26T13:58:06;26.00;63.40
32446;DHT22;18899;50.748;7.102;2023-06-26T14:00:32;26.10;61.70
32446;DHT22;18899;50.748;7.102;2023-06-26T14:02:59;25.90;61.90
32446;DHT22;18899;50.748;7.102;2023-06-26T14:05:25;25.50;60.20
32446;DHT22;18899;50.748;7.102;2023-06-26T14:07:50;25.10;60.50
32446;DHT22;18899;50.748;7.102;2023-06-26T14:10:16;25.20;63.00
32446;DHT22;18899;50.748;7.102;2023-06-26T14:12:42;25.30;61.40
32446;DHT22;18899;50.748;7.102;2023-06-26T14:15:07;25.20;62.10
32446;DHT22;18899;50.748;7.102;2023-06-26T14:17:33;25.30;66.90
32446;DHT22;18899;50.748;7.102;2023-06-26T14:19:59;25.40;64.00
32446;DHT22;18899;50.748;7.102;2023-06-26T14:22:25;25.40;63.60
32446;DHT22;18899;50.748;7.102;2023-06-26T14:24:51;25.30;63.30
32446;DHT22;18899;50.748;7.102;2023-06-26T14:27:16;25.20;64.40
32446;DHT22;18899;50.748;7.102;2023-06-26T14:29:42;25.10;64.60
32446;DHT22;18899;50.748;7.102;2023-06-26T14:32:07;25.00;64.40
32446;DHT22;18899;50.748;7.102;2023-06-26T14:34:33;24.80;63.50
32446;DHT22;18899;50.748;7.102;2023-06-26T14:36:59;24.60;63.40
32446;DHT22;18899;50.748;7.102;2023-06-26T14:39:24;24.70;65.70
32446;DHT22;18899;50.748;7.102;2023-06-26T14:41:50;24.60;63.50
32446;DHT22;18899;50.748;7.102;2023-06-26T14:44:16;24.50;63.00
32446;DHT22;18899;50.748;7.102;2023-06-26T14:46:41;24.50;63.20
32446;DHT22;18899;50.748;7.102;2023-06-26T14:49:07;24.40;63.40
32446;DHT22;18899;50.748;7.102;2023-06-26T14:51:33;24.30;63.60
32446;DHT22;18899;50.748;7.102;2023-06-26T14:53:59;24.40;63.10
32446;DHT22;18899;50.748;7.102;2023-06-26T14:56:25;24.50;62.70
32446;DHT22;18899;50.748;7.102;2023-06-26T14:58:50;24.50;63.00
32446;DHT22;18899;50.748;7.102;2023-06-26T15:01:19;24.60;61.70
32446;DHT22;18899;50.748;7.102;2023-06-26T15:03:46;24.50;61.20
32446;DHT22;18899;50.748;7.102;2023-06-26T15:06:12;24.50;62.10
32446;DHT22;18899;50.748;7.102;2023-06-26T15:08:37;24.50;60.30
32446;DHT22;18899;50.748;7.102;2023-06-26T15:11:03;24.40;61.00
32446;DHT22;18899;50.748;7.102;2023-06-26T15:13:29;24.50;60.90
32446;DHT22;18899;50.748;7.102;2023-06-26T15:15:54;24.60;59.60
32446;DHT22;18899;50.748;7.102;2023-06-26T15:18:20;24.80;59.40
32446;DHT22;18899;50.748;7.102;2023-06-26T15:20:45;25.00;60.00
32446;DHT22;18899;50.748;7.102;2023-06-26T15:23:11;25.00;59.40
32446;DHT22;18899;50.748;7.102;2023-06-26T15:25:37;24.70;61.30
32446;DHT22;18899;50.748;7.102;2023-06-26T15:28:04;24.70;62.50
32446;DHT22;18899;50.748;7.102;2023-06-26T15:30:29;24.70;61.40
32446;DHT22;18899;50.748;7.102;2023-06-26T15:32:55;24.50;61.70
32446;DHT22;18899;50.748;7.102;2023-06-26T15:35:21;24.50;62.50
32446;DHT22;18899;50.748;7.102;2023-06-26T15:37:46;24.30;63.50